Weather observations for the past three days for
Coeur d'Alene Airport - Pappy Boyington Field
Imperial (Metric)
Date Time (pdt) Wind (mph) Vis. (mi.) Weather Sky Cond. Temperature (ºF) Relative Humidity Wind Chill (°F) Heat Index (°F) Pressure Precipitation (in)
Air Dwpt 6 hour altimeter (in) sea level (mb) 1 hr 3 hr 6 hr
Max. Min.
04 12:56 NE 12 10.00 Fair CLR 73 39.9 30% 29.81 1010.1
04 11:56 N 12 10.00 Fair CLR 71.1 41 34% 29.82 1010.3
04 10:56 N 14 10.00 Fair CLR 69.1 41 70 46.9 36% 29.83 1010.4
04 09:56 NE 14 10.00 Fair CLR 66 41 40% 29.83 1010.5
04 08:56 N 15 10.00 Fair CLR 62.1 43 50% 29.83 1010.6
04 07:56 N 12 10.00 Fair CLR 57.9 42.1 56% 29.83 1010.8
04 06:56 E 9 10.00 Fair CLR 51.1 43 74% 29.83 1010.8
04 05:56 E 7 10.00 Fair CLR 50 42.1 74% 48 29.81 1010.1
04 04:56 NE 9 10.00 Fair CLR 46.9 41 60.1 46.9 80% 43 29.81 1010.1
04 03:56 E 6 10.00 Fair CLR 50 42.1 74% 48 29.81 1009.9
04 02:56 N 3 10.00 Fair CLR 50 41 71% 29.81 1009.9
04 01:56 E 3 10.00 Fair CLR 51.1 42.1 71% 29.79 1009.5
04 00:56 Calm 10.00 Fair CLR 51.1 42.1 71% 29.8 1009.7
03 23:56 E 3 10.00 Fair CLR 57 42.1 58% 29.8 1009.5
03 22:56 SE 3 10.00 Fair CLR 60.1 42.1 77 60.1 52% 29.8 1009.7
03 21:56 SE 3 10.00 Fair CLR 61 43 52% 29.81 1010.1
03 20:56 Calm 10.00 Fair CLR 64.9 43 45% 29.8 1009.9
03 19:56 SW 3 10.00 Fair CLR 69.1 41 36% 29.8 1009.7
03 18:56 SW 3 10.00 Fair CLR 75 45 34% 77 29.81 1010.0
03 17:56 W 5 10.00 Fair CLR 77 37 24% 77 29.82 1010.6
03 16:56 SW 8 10.00 Fair CLR 77 35.1 77 68 22% 77 29.83 1010.9
03 15:56 S 10 10.00 Fair CLR 77 36 23% 77 29.85 1011.5
03 14:56 SW 8 10.00 Fair CLR 77 37 24% 77 29.88 1012.5
03 13:56 Vrbl 6 10.00 Fair CLR 75 42.1 31% 77 29.91 1013.7
03 12:56 Calm 10.00 Fair CLR 73 39 29% 29.93 1014.3
03 11:56 Calm 9.00 Fair CLR 71.1 39.9 32% 29.95 1014.9
03 10:56 S 5 10.00 Fair CLR 68 41 68 42.1 38% 29.96 1015.3
03 09:56 NE 3 10.00 Fair CLR 64.9 42.1 43% 29.98 1015.8
03 08:56 E 7 10.00 Fair CLR 60.1 43 53% 29.99 1016.4
03 07:56 Calm 10.00 Fair CLR 55 45 69% 30 1016.7
03 06:56 Calm 10.00 Fair CLR 48 42.1 80% 30 1016.9
03 05:56 NE 6 10.00 Fair CLR 43 39 86% 40 29.99 1016.5
03 04:56 E 3 10.00 Fair CLR 46 41 57 46 83% 29.99 1016.2
03 03:56 E 5 10.00 Fair CLR 48 42.1 80% 47 29.99 1016.4
03 02:56 E 7 10.00 Fair CLR 46 41 83% 43 29.99 1016.4
03 01:56 E 3 10.00 Fair CLR 46.9 41 80% 29.98 1016.1
03 00:56 Calm 10.00 Fair CLR 51.1 44.1 77% 29.98 1016.0
02 23:56 NE 3 10.00 Fair CLR 52 42.1 69% 29.98 1015.9
02 22:56 E 5 10.00 Fair CLR 57 44.1 78.1 55.9 62% 29.97 1015.5
02 21:56 Calm 10.00 Fair CLR 57.9 42.1 56% 29.96 1015.4
02 20:56 Calm 10.00 Fair CLR 62.1 42.1 48% 29.95 1015.2
02 19:56 Calm 10.00 Fair CLR 69.1 39.9 35% 29.93 1014.4
02 18:56 N 5 10.00 Fair CLR 72 42.1 34% 29.93 1014.3
02 17:56 Calm 10.00 Fair CLR 77 34 21% 77 29.94 1014.5
02 16:56 N 5 10.00 Fair CLR 78.1 36 78.1 68 22% 78 29.94 1014.6
02 15:56 Vrbl 3 10.00 Fair CLR 78.1 34 20% 77 29.96 1015.4
02 14:56 E 8 10.00 Fair CLR 77 37 24% 77 29.98 1016.1
02 13:56 NE 8 10.00 Fair CLR 77 37 24% 77 30 1016.8
02 12:56 Vrbl 3 10.00 Fair CLR 73.9 39.9 29% 30.02 1017.4
02 11:56 NE 9 10.00 Fair CLR 71.1 41 34% 30.03 1017.7
02 10:56 N 10 10.00 Fair CLR 68 43 68 46.9 40% 30.04 1018.2
02 09:56 NE 10 10.00 Fair CLR 64.9 42.1 43% 30.05 1018.6
02 08:56 NE 13 10.00 Fair CLR 60.1 41 50% 30.06 1018.8
02 07:56 NE 10 10.00 Fair CLR 55 42.1 62% 30.06 1018.9
02 06:56 E 8 10.00 Fair CLR 48.9 42.1 77% 46 30.05 1018.6
02 05:56 E 8 10.00 Fair CLR 46.9 39.9 77% 44 30.04 1018.5
02 04:56 E 7 10.00 Fair CLR 48 39.9 55 45 74% 45 30.04 1018.2
02 03:56 E 8 10.00 Fair CLR 46 39.9 79% 42 30.04 1018.1
02 02:56 E 6 10.00 Fair CLR 46 41 83% 44 30.03 1017.9
02 01:56 NE 6 10.00 Fair CLR 46.9 41 80% 45 30.03 1018.0
02 00:56 E 3 10.00 Fair CLR 48.9 43 80% 30.03 1017.9
01 23:56 E 3 10.00 Fair CLR 54 43 67% 30.03 1017.7
01 22:56 E 3 10.00 Fair CLR 55 44.1 73.9 55 67% 30.02 1017.5
01 21:56 E 3 10.00 Fair CLR 59 44.1 58% 30.02 1017.5
01 20:56 Calm 10.00 Fair CLR 60.1 41 50% 30.01 1017.4
01 19:56 W 5 10.00 Fair CLR 64.9 43 45% 30 1016.9
01 18:56 W 7 10.00 Fair CLR 70 41 35% 29.99 1016.7
01 17:56 W 7 10.00 Fair CLR 71.1 39.9 32% 30 1017.1
01 16:56 W 8 10.00 Fair CLR 73.9 37.9 75 66 27% 30 1017.4
01 15:56 SW 12 G 18 10.00 Fair CLR 75 39 27% 77 30.02 1017.7
01 14:56 E 3 10.00 Fair CLR 75 37.9 26% 77 30.04 1018.2
01 13:56 Vrbl 3 10.00 Fair CLR 72 35.1 26% 30.05 1018.7
Date Time (pdt) Wind (mph) Vis. (mi.) Weather Sky Cond. Air Dwpt Max. Min. Relative Humidity Wind Chill (°F) Heat Index (°F) altimeter (in) sea level (mb) 1 hr 3 hr 6 hr
6 hour
Temperature (ºF) Pressure Precipitation (in)